Links Sitemap Venhuizerweer voor mobiel

AMSTERDAM SCHIPHOL:
Amsterdam Airport Schiphol, Netherlands (EHAM) 52-18N 004-46E -2M
Feb 16, 2020 - 05:55 PM EST / 2020.02.16 2255 UTC
Wind: from the WSW (240 degrees) at 32 MPH (28 KT) gusting to 46 MPH (40 KT) (direction variable):0
Visibility: greater than 7 mile(s):0
Sky conditions: partly cloudy
Temperature: 48 F (9 C)
Dew Point: 41 F (5 C)
Relative Humidity: 75%
Pressure (altimeter): 29.59 in. Hg (1002 hPa)
ob: EHAM 162255Z 24028G40KT 210V270 9999 FEW021 SCT032 09/05 Q1002 NOSIG
cycle: 23
DEELEN:
Deelen, Netherlands (EHDL) 52-04N 005-53E 52M
Feb 16, 2020 - 05:55 PM EST / 2020.02.16 2255 UTC
Wind: from the SSW (210 degrees) at 20 MPH (17 KT) (direction variable):0
Visibility: greater than 7 mile(s):0
Sky conditions: mostly cloudy
Temperature: 46 F (8 C)
Dew Point: 42 F (6 C)
Relative Humidity: 87%
Pressure (altimeter): 29.62 in. Hg (1003 hPa)
ob: EHDL 162255Z AUTO 21017KT 140V260 9999 FEW017 SCT021 BKN025 08/06 Q1003 WHT
cycle: 23
DE KOOY:
De Kooy, Netherlands (EHKD) 52-55N 004-47E 14M
Feb 16, 2020 - 04:55 PM EST / 2020.02.16 2155 UTC
Wind: from the SW (230 degrees) at 23 MPH (20 KT) (direction variable):0
Visibility: greater than 7 mile(s):0
Sky conditions: overcast
Temperature: 46 F (8 C)
Dew Point: 42 F (6 C)
Relative Humidity: 87%
Pressure (altimeter): 29.47 in. Hg (0998 hPa)
ob: EHKD 162155Z AUTO 23020KT 200V260 9999 OVC250 08/06 Q0998 BLU
cycle: 22
EELDE:
Groningen Airport Eelde, Netherlands (EHGG) 53-08N 006-35E 4M
Feb 16, 2020 - 05:55 PM EST / 2020.02.16 2255 UTC
Wind: from the SW (230 degrees) at 24 MPH (21 KT):0
Visibility: greater than 7 mile(s):0
Sky conditions: mostly cloudy
Temperature: 48 F (9 C)
Dew Point: 41 F (5 C)
Relative Humidity: 75%
Pressure (altimeter): 29.50 in. Hg (0999 hPa)
ob: EHGG 162255Z AUTO 23021KT 9999 FEW020 SCT032 BKN043 09/05 Q0999
cycle: 23
EINDHOVEN:
Eindhoven, Netherlands (EHEH) 51-27N 005-25E 28M
Feb 16, 2020 - 05:59 PM EST / 2020.02.16 2259 UTC
Wind: from the SW (220 degrees) at 21 MPH (18 KT) (direction variable):0
Visibility: greater than 7 mile(s):0
Sky conditions: mostly cloudy
Temperature: 46 F (8 C)
Dew Point: 42 F (6 C)
Relative Humidity: 87%
Pressure (altimeter): 29.71 in. Hg (1006 hPa)
ob: EHEH 162259Z AUTO 22018KT 200V260 9999 FEW019 BKN022 BKN026 08/06 Q1006 WHT
cycle: 23
GILZE-RIJEN:
Gilze-Rijen, Netherlands (EHGR) 51-34N 004-56E 24M
Feb 16, 2020 - 05:59 PM EST / 2020.02.16 2259 UTC
Wind: from the SW (220 degrees) at 16 MPH (14 KT) (direction variable):0
Visibility: greater than 7 mile(s):0
Sky conditions: mostly cloudy
Temperature: 48 F (9 C)
Dew Point: 42 F (6 C)
Relative Humidity: 81%
Pressure (altimeter): 29.68 in. Hg (1005 hPa)
ob: EHGR 162259Z AUTO 22014KT 170V260 9999 FEW023 BKN028 BKN032 09/06 Q1005 BLU
cycle: 23
LEEUWARDEN:
Leeuwarden, Netherlands (EHLW) 53-13N 005-46E 11M
Feb 16, 2020 - 05:55 PM EST / 2020.02.16 2255 UTC
Wind: from the SW (230 degrees) at 24 MPH (21 KT):0
Visibility: greater than 7 mile(s):0
Sky conditions: partly cloudy
Temperature: 46 F (8 C)
Dew Point: 41 F (5 C)
Relative Humidity: 81%
Pressure (altimeter): 29.50 in. Hg (0999 hPa)
ob: EHLW 162255Z AUTO 23021KT 9999 FEW024 SCT027 08/05 Q0999 BLU
cycle: 23
MAASTRICHT:
Maastricht Airport Zuid Limburg, Netherlands (EHBK) 50-55N 005-47E 116M
Feb 16, 2020 - 05:55 PM EST / 2020.02.16 2255 UTC
Wind: from the SW (220 degrees) at 22 MPH (19 KT) (direction variable):0
Visibility: greater than 7 mile(s):0
Sky conditions: mostly cloudy
Temperature: 44 F (7 C)
Dew Point: 41 F (5 C)
Relative Humidity: 87%
Pressure (altimeter): 29.77 in. Hg (1008 hPa)
ob: EHBK 162255Z AUTO 22019KT 190V250 9999 BKN028 BKN045 07/05 Q1008
cycle: 23
ROTTERDAM ZESTIENHOVEN:
Rotterdam Airport Zestienhoven, Netherlands (EHRD) 51-57N 004-27E -4M
Feb 16, 2020 - 05:55 PM EST / 2020.02.16 2255 UTC
Wind: from the WSW (240 degrees) at 23 MPH (20 KT) gusting to 36 MPH (31 KT) (direction variable):0
Visibility: greater than 7 mile(s):0
Sky conditions: mostly cloudy
Temperature: 48 F (9 C)
Dew Point: 42 F (6 C)
Relative Humidity: 81%
Pressure (altimeter): 29.62 in. Hg (1003 hPa)
ob: EHRD 162255Z AUTO 24020G31KT 210V300 9999 SCT021 BKN025 09/06 Q1003 NOSIG
cycle: 23
SOESTERBERG:
Soesterberg, Netherlands (EHSB) 52-08N 005-17E 25M
Nov 20, 2008 - 04:25 AM EST / 2008.11.20 0925 UTC
Wind: from the W (280 degrees) at 16 MPH (14 KT):0
Visibility: greater than 7 mile(s):0
Temperature: 51 F (11 C)
Dew Point: 48 F (9 C)
Relative Humidity: 87%
Pressure (altimeter): 29.83 in. Hg (1010 hPa)
ob: EHSB 200925Z AUTO 28014KT 9999 // 11/09 Q1010
cycle: 9
TWENTE:
Twenthe, Netherlands (EHTW) 52-16N 006-54E 57M
Apr 07, 2008 - 08:25 AM EDT / 2008.04.07 1225 UTC
Wind: from the N (010 degrees) at 7 MPH (6 KT):0
Sky conditions: mostly cloudy
Temperature: 46 F (8 C)
Dew Point: 24 F (-4 C)
Relative Humidity: 42%
Pressure (altimeter): 29.59 in. Hg (1002 hPa)
ob: EHTW 071225Z AUTO 01006KT //// // BKN200/// 08/M04 Q1002 RE//
cycle: 12
VALKENBURG:
Valkenburg, Netherlands (EHVB) 52-11N 004-25E 2M
Apr 01, 2010 - 03:55 AM EDT / 2010.04.01 0755 UTC
Wind: from the WSW (250 degrees) at 20 MPH (17 KT):0
Sky conditions: mostly cloudy
Temperature: 41 F (5 C)
Dew Point: 33 F (1 C)
Relative Humidity: 75%
Pressure (altimeter): 29.62 in. Hg (1003 hPa)
ob: EHVB 010755Z AUTO 25017KT 9999NDV FEW021/// BKN037/// 05/01 Q1003 BLU
cycle: 8
VLIELAND:
Vlieland, Netherlands (EHVL) 53-15N 004-55E 12M
Feb 16, 2020 - 05:55 PM EST / 2020.02.16 2255 UTC
Wind: from the WSW (240 degrees) at 37 MPH (32 KT):0
Visibility: greater than 7 mile(s):0
Temperature: 46 F (8 C)
Dew Point: 39 F (4 C)
Relative Humidity: 75%
Pressure (altimeter): 29.44 in. Hg (0997 hPa)
ob: EHVL 162255Z AUTO 24032KT 9999 NCD 08/04 Q0997 BLU
cycle: 23
VOLKEL:
Volkel, Netherlands (EHVK) 51-39N 005-42E 21M
Feb 16, 2020 - 05:55 PM EST / 2020.02.16 2255 UTC
Wind: from the SW (220 degrees) at 23 MPH (20 KT) (direction variable):0
Visibility: greater than 7 mile(s):0
Sky conditions: mostly cloudy
Temperature: 46 F (8 C)
Dew Point: 42 F (6 C)
Relative Humidity: 87%
Pressure (altimeter): 29.68 in. Hg (1005 hPa)
ob: EHVK 162255Z AUTO 22020KT 180V250 9999 SCT015 BKN018 BKN021 08/06 Q1005 WHT
cycle: 23
WOENSDRECHT:
Woensdrecht, Netherlands (EHWO) 51-27N 004-20E 17M
Feb 16, 2020 - 05:55 PM EST / 2020.02.16 2255 UTC
Wind: from the WSW (240 degrees) at 22 MPH (19 KT) gusting to 36 MPH (31 KT):0
Visibility: greater than 7 mile(s):0
Sky conditions: overcast
Temperature: 48 F (9 C)
Dew Point: 41 F (5 C)
Relative Humidity: 75%
Pressure (altimeter): 29.68 in. Hg (1005 hPa)
ob: EHWO 162255Z AUTO 24019G31KT 9999 FEW023 BKN026 OVC030 09/05 Q1005 BLU
cycle: 23
Copyright © 2005 - 2020 Venhuizerweer - Alle Rechten Voorbehouden


3.234.245.125